sensor_id;sensor_type;location;lat;lon;timestamp;P1;durP1;ratioP1;P2;durP2;ratioP2
22881;SDS011;11608;50.894;5.296;2022-08-16T00:01:58;22.58;;;21.13;;
22881;SDS011;11608;50.894;5.296;2022-08-16T00:04:24;22.42;;;20.70;;
22881;SDS011;11608;50.894;5.296;2022-08-16T00:06:50;23.08;;;21.25;;
22881;SDS011;11608;50.894;5.296;2022-08-16T00:09:16;21.45;;;20.05;;
22881;SDS011;11608;50.894;5.296;2022-08-16T00:11:43;21.75;;;20.35;;
22881;SDS011;11608;50.894;5.296;2022-08-16T00:14:13;22.00;;;20.35;;
22881;SDS011;11608;50.894;5.296;2022-08-16T00:16:40;22.38;;;20.88;;
22881;SDS011;11608;50.894;5.296;2022-08-16T00:19:06;22.50;;;21.00;;
22881;SDS011;11608;50.894;5.296;2022-08-16T00:21:32;23.27;;;21.67;;
22881;SDS011;11608;50.894;5.296;2022-08-16T00:23:59;23.48;;;21.77;;
22881;SDS011;11608;50.894;5.296;2022-08-16T00:26:25;22.83;;;21.23;;
22881;SDS011;11608;50.894;5.296;2022-08-16T00:28:51;23.48;;;21.88;;
22881;SDS011;11608;50.894;5.296;2022-08-16T00:31:17;22.20;;;20.70;;
22881;SDS011;11608;50.894;5.296;2022-08-16T00:33:43;23.55;;;21.95;;
22881;SDS011;11608;50.894;5.296;2022-08-16T00:36:09;23.63;;;21.90;;
22881;SDS011;11608;50.894;5.296;2022-08-16T00:38:35;23.48;;;21.88;;
22881;SDS011;11608;50.894;5.296;2022-08-16T00:41:01;24.00;;;22.50;;
22881;SDS011;11608;50.894;5.296;2022-08-16T00:43:30;24.90;;;23.10;;
22881;SDS011;11608;50.894;5.296;2022-08-16T00:48:40;23.55;;;21.38;;
22881;SDS011;11608;50.894;5.296;2022-08-16T00:51:08;23.80;;;22.20;;
22881;SDS011;11608;50.894;5.296;2022-08-16T00:53:34;23.75;;;22.13;;
22881;SDS011;11608;50.894;5.296;2022-08-16T00:56:02;24.00;;;22.30;;
22881;SDS011;11608;50.894;5.296;2022-08-16T00:58:30;23.27;;;21.70;;
22881;SDS011;11608;50.894;5.296;2022-08-16T01:00:56;24.80;;;23.10;;
22881;SDS011;11608;50.894;5.296;2022-08-16T01:03:23;24.98;;;23.20;;
22881;SDS011;11608;50.894;5.296;2022-08-16T01:05:50;24.65;;;23.05;;
22881;SDS011;11608;50.894;5.296;2022-08-16T01:08:18;25.10;;;23.40;;
22881;SDS011;11608;50.894;5.296;2022-08-16T01:10:45;25.10;;;23.08;;
22881;SDS011;11608;50.894;5.296;2022-08-16T01:13:13;25.52;;;23.67;;
22881;SDS011;11608;50.894;5.296;2022-08-16T01:15:40;25.55;;;23.60;;
22881;SDS011;11608;50.894;5.296;2022-08-16T01:18:08;25.38;;;23.35;;
22881;SDS011;11608;50.894;5.296;2022-08-16T01:20:37;24.63;;;23.02;;
22881;SDS011;11608;50.894;5.296;2022-08-16T01:25:38;24.77;;;23.08;;
22881;SDS011;11608;50.894;5.296;2022-08-16T01:28:07;24.75;;;23.10;;
22881;SDS011;11608;50.894;5.296;2022-08-16T01:30:38;25.45;;;23.45;;
22881;SDS011;11608;50.894;5.296;2022-08-16T01:33:05;24.92;;;22.95;;
22881;SDS011;11608;50.894;5.296;2022-08-16T01:38:11;24.50;;;22.70;;
22881;SDS011;11608;50.894;5.296;2022-08-16T01:40:38;25.15;;;23.08;;
22881;SDS011;11608;50.894;5.296;2022-08-16T01:43:04;24.35;;;22.65;;
22881;SDS011;11608;50.894;5.296;2022-08-16T01:45:32;24.63;;;22.73;;
22881;SDS011;11608;50.894;5.296;2022-08-16T01:47:58;24.65;;;22.77;;
22881;SDS011;11608;50.894;5.296;2022-08-16T01:50:24;25.13;;;23.33;;
22881;SDS011;11608;50.894;5.296;2022-08-16T01:52:50;23.90;;;22.25;;
22881;SDS011;11608;50.894;5.296;2022-08-16T01:55:17;24.52;;;22.73;;
22881;SDS011;11608;50.894;5.296;2022-08-16T01:57:43;23.92;;;22.33;;
22881;SDS011;11608;50.894;5.296;2022-08-16T02:00:09;24.10;;;22.42;;
22881;SDS011;11608;50.894;5.296;2022-08-16T02:02:35;23.83;;;22.13;;
22881;SDS011;11608;50.894;5.296;2022-08-16T02:05:02;23.60;;;21.90;;
22881;SDS011;11608;50.894;5.296;2022-08-16T02:07:28;23.13;;;21.63;;
22881;SDS011;11608;50.894;5.296;2022-08-16T02:09:54;23.58;;;22.08;;
22881;SDS011;11608;50.894;5.296;2022-08-16T02:12:20;24.38;;;22.67;;
22881;SDS011;11608;50.894;5.296;2022-08-16T02:14:46;24.58;;;22.83;;
22881;SDS011;11608;50.894;5.296;2022-08-16T02:17:12;23.75;;;22.20;;
22881;SDS011;11608;50.894;5.296;2022-08-16T02:19:40;23.98;;;22.38;;
22881;SDS011;11608;50.894;5.296;2022-08-16T02:22:07;23.63;;;21.98;;
22881;SDS011;11608;50.894;5.296;2022-08-16T02:24:35;23.30;;;21.80;;
22881;SDS011;11608;50.894;5.296;2022-08-16T02:27:02;23.17;;;21.58;;
22881;SDS011;11608;50.894;5.296;2022-08-16T02:29:28;23.88;;;22.13;;
22881;SDS011;11608;50.894;5.296;2022-08-16T02:31:54;23.67;;;21.98;;
22881;SDS011;11608;50.894;5.296;2022-08-16T02:34:20;24.05;;;22.35;;
22881;SDS011;11608;50.894;5.296;2022-08-16T02:36:47;24.23;;;22.48;;
22881;SDS011;11608;50.894;5.296;2022-08-16T02:39:13;24.00;;;22.27;;
22881;SDS011;11608;50.894;5.296;2022-08-16T02:41:40;24.52;;;22.73;;
22881;SDS011;11608;50.894;5.296;2022-08-16T02:44:07;24.02;;;22.33;;
22881;SDS011;11608;50.894;5.296;2022-08-16T02:46:35;24.40;;;22.48;;
22881;SDS011;11608;50.894;5.296;2022-08-16T02:49:01;24.40;;;22.42;;
22881;SDS011;11608;50.894;5.296;2022-08-16T02:51:27;24.20;;;22.38;;
22881;SDS011;11608;50.894;5.296;2022-08-16T02:53:53;24.10;;;22.35;;
22881;SDS011;11608;50.894;5.296;2022-08-16T02:56:20;24.13;;;22.42;;
22881;SDS011;11608;50.894;5.296;2022-08-16T02:58:48;24.95;;;23.13;;
22881;SDS011;11608;50.894;5.296;2022-08-16T03:01:16;24.17;;;22.48;;
22881;SDS011;11608;50.894;5.296;2022-08-16T03:03:42;25.08;;;23.38;;
22881;SDS011;11608;50.894;5.296;2022-08-16T03:06:08;25.52;;;23.73;;
22881;SDS011;11608;50.894;5.296;2022-08-16T03:08:35;25.25;;;23.63;;
22881;SDS011;11608;50.894;5.296;2022-08-16T03:11:02;26.05;;;23.98;;
22881;SDS011;11608;50.894;5.296;2022-08-16T03:13:28;25.27;;;23.58;;
22881;SDS011;11608;50.894;5.296;2022-08-16T03:15:54;24.55;;;22.85;;
22881;SDS011;11608;50.894;5.296;2022-08-16T03:18:20;22.95;;;21.45;;
22881;SDS011;11608;50.894;5.296;2022-08-16T03:20:46;24.02;;;22.17;;
22881;SDS011;11608;50.894;5.296;2022-08-16T03:23:12;24.77;;;23.02;;
22881;SDS011;11608;50.894;5.296;2022-08-16T03:25:38;23.80;;;22.13;;
22881;SDS011;11608;50.894;5.296;2022-08-16T03:28:05;23.98;;;22.27;;
22881;SDS011;11608;50.894;5.296;2022-08-16T03:30:32;23.55;;;21.75;;
22881;SDS011;11608;50.894;5.296;2022-08-16T03:32:58;23.95;;;22.23;;
22881;SDS011;11608;50.894;5.296;2022-08-16T03:35:26;23.52;;;21.90;;
22881;SDS011;11608;50.894;5.296;2022-08-16T03:37:53;23.70;;;22.00;;
22881;SDS011;11608;50.894;5.296;2022-08-16T03:40:20;24.35;;;22.65;;
22881;SDS011;11608;50.894;5.296;2022-08-16T03:42:46;24.80;;;23.00;;
22881;SDS011;11608;50.894;5.296;2022-08-16T03:45:12;24.67;;;23.05;;
22881;SDS011;11608;50.894;5.296;2022-08-16T03:47:38;24.88;;;22.92;;
22881;SDS011;11608;50.894;5.296;2022-08-16T03:50:05;25.45;;;23.65;;
22881;SDS011;11608;50.894;5.296;2022-08-16T03:52:32;24.83;;;23.20;;
22881;SDS011;11608;50.894;5.296;2022-08-16T03:54:59;24.98;;;23.38;;
22881;SDS011;11608;50.894;5.296;2022-08-16T03:57:25;24.50;;;22.90;;
22881;SDS011;11608;50.894;5.296;2022-08-16T03:59:51;24.90;;;23.30;;
22881;SDS011;11608;50.894;5.296;2022-08-16T04:02:17;25.02;;;23.33;;
22881;SDS011;11608;50.894;5.296;2022-08-16T04:04:43;25.35;;;23.70;;
22881;SDS011;11608;50.894;5.296;2022-08-16T04:07:11;25.08;;;23.38;;
22881;SDS011;11608;50.894;5.296;2022-08-16T04:09:37;25.27;;;23.58;;
22881;SDS011;11608;50.894;5.296;2022-08-16T04:12:03;24.90;;;23.30;;
22881;SDS011;11608;50.894;5.296;2022-08-16T04:14:30;24.85;;;23.13;;
22881;SDS011;11608;50.894;5.296;2022-08-16T04:16:56;24.23;;;22.50;;
22881;SDS011;11608;50.894;5.296;2022-08-16T04:19:22;24.30;;;22.60;;
22881;SDS011;11608;50.894;5.296;2022-08-16T04:21:49;23.40;;;21.70;;
22881;SDS011;11608;50.894;5.296;2022-08-16T04:24:16;25.20;;;23.40;;
22881;SDS011;11608;50.894;5.296;2022-08-16T04:26:42;24.70;;;22.85;;
22881;SDS011;11608;50.894;5.296;2022-08-16T04:29:08;23.77;;;22.02;;
22881;SDS011;11608;50.894;5.296;2022-08-16T04:31:34;24.48;;;22.92;;
22881;SDS011;11608;50.894;5.296;2022-08-16T04:34:00;25.30;;;23.45;;
22881;SDS011;11608;50.894;5.296;2022-08-16T04:36:26;25.08;;;23.45;;
22881;SDS011;11608;50.894;5.296;2022-08-16T04:38:52;23.80;;;22.25;;
22881;SDS011;11608;50.894;5.296;2022-08-16T04:41:19;23.63;;;22.13;;
22881;SDS011;11608;50.894;5.296;2022-08-16T04:43:45;23.60;;;21.95;;
22881;SDS011;11608;50.894;5.296;2022-08-16T04:46:11;24.40;;;22.35;;
22881;SDS011;11608;50.894;5.296;2022-08-16T04:48:39;23.58;;;21.70;;
22881;SDS011;11608;50.894;5.296;2022-08-16T04:51:05;24.80;;;22.80;;
22881;SDS011;11608;50.894;5.296;2022-08-16T04:53:32;23.40;;;21.70;;
22881;SDS011;11608;50.894;5.296;2022-08-16T04:55:58;23.45;;;21.75;;
22881;SDS011;11608;50.894;5.296;2022-08-16T04:58:24;24.48;;;22.55;;
22881;SDS011;11608;50.894;5.296;2022-08-16T05:00:50;24.33;;;22.63;;
22881;SDS011;11608;50.894;5.296;2022-08-16T05:03:16;24.92;;;22.83;;
22881;SDS011;11608;50.894;5.296;2022-08-16T05:05:42;24.48;;;22.67;;
22881;SDS011;11608;50.894;5.296;2022-08-16T05:08:09;24.30;;;22.50;;
22881;SDS011;11608;50.894;5.296;2022-08-16T05:10:35;24.60;;;22.67;;
22881;SDS011;11608;50.894;5.296;2022-08-16T05:13:04;24.80;;;23.10;;
22881;SDS011;11608;50.894;5.296;2022-08-16T05:15:30;24.98;;;23.15;;
22881;SDS011;11608;50.894;5.296;2022-08-16T05:17:56;25.17;;;23.42;;
22881;SDS011;11608;50.894;5.296;2022-08-16T05:20:22;25.83;;;23.52;;
22881;SDS011;11608;50.894;5.296;2022-08-16T05:22:48;25.20;;;23.05;;
22881;SDS011;11608;50.894;5.296;2022-08-16T05:25:15;25.25;;;23.33;;
22881;SDS011;11608;50.894;5.296;2022-08-16T05:27:41;24.05;;;22.02;;
22881;SDS011;11608;50.894;5.296;2022-08-16T05:30:09;22.50;;;20.92;;
22881;SDS011;11608;50.894;5.296;2022-08-16T05:32:39;24.45;;;22.33;;
22881;SDS011;11608;50.894;5.296;2022-08-16T05:35:06;24.77;;;22.80;;
22881;SDS011;11608;50.894;5.296;2022-08-16T05:37:34;26.42;;;24.20;;
22881;SDS011;11608;50.894;5.296;2022-08-16T05:40:00;26.55;;;24.38;;
22881;SDS011;11608;50.894;5.296;2022-08-16T05:42:26;26.63;;;24.42;;
22881;SDS011;11608;50.894;5.296;2022-08-16T05:44:52;26.25;;;24.08;;
22881;SDS011;11608;50.894;5.296;2022-08-16T05:47:18;25.05;;;23.30;;
22881;SDS011;11608;50.894;5.296;2022-08-16T05:49:44;25.35;;;23.35;;
22881;SDS011;11608;50.894;5.296;2022-08-16T05:52:10;24.58;;;22.67;;
22881;SDS011;11608;50.894;5.296;2022-08-16T05:54:36;25.92;;;23.95;;
22881;SDS011;11608;50.894;5.296;2022-08-16T05:57:03;25.95;;;23.95;;
22881;SDS011;11608;50.894;5.296;2022-08-16T05:59:29;26.15;;;24.02;;
22881;SDS011;11608;50.894;5.296;2022-08-16T06:01:55;25.65;;;23.73;;
22881;SDS011;11608;50.894;5.296;2022-08-16T06:04:22;25.38;;;23.52;;
22881;SDS011;11608;50.894;5.296;2022-08-16T06:06:48;23.50;;;21.88;;
22881;SDS011;11608;50.894;5.296;2022-08-16T06:09:14;25.33;;;23.52;;
22881;SDS011;11608;50.894;5.296;2022-08-16T06:11:41;26.10;;;24.02;;
22881;SDS011;11608;50.894;5.296;2022-08-16T06:14:08;25.92;;;23.80;;
22881;SDS011;11608;50.894;5.296;2022-08-16T06:16:34;27.60;;;25.25;;
22881;SDS011;11608;50.894;5.296;2022-08-16T06:19:00;24.98;;;23.20;;
22881;SDS011;11608;50.894;5.296;2022-08-16T06:21:26;24.63;;;22.60;;
22881;SDS011;11608;50.894;5.296;2022-08-16T06:23:52;24.55;;;22.33;;
22881;SDS011;11608;50.894;5.296;2022-08-16T06:26:18;25.60;;;23.38;;
22881;SDS011;11608;50.894;5.296;2022-08-16T06:28:44;25.95;;;23.70;;
22881;SDS011;11608;50.894;5.296;2022-08-16T06:31:11;24.70;;;22.98;;
22881;SDS011;11608;50.894;5.296;2022-08-16T06:33:38;26.42;;;24.30;;
22881;SDS011;11608;50.894;5.296;2022-08-16T06:36:04;25.08;;;23.13;;
22881;SDS011;11608;50.894;5.296;2022-08-16T06:38:32;25.75;;;23.83;;
22881;SDS011;11608;50.894;5.296;2022-08-16T06:41:04;25.08;;;23.10;;
22881;SDS011;11608;50.894;5.296;2022-08-16T06:43:31;24.42;;;22.77;;
22881;SDS011;11608;50.894;5.296;2022-08-16T06:45:59;25.65;;;23.70;;
22881;SDS011;11608;50.894;5.296;2022-08-16T06:48:25;25.40;;;23.23;;
22881;SDS011;11608;50.894;5.296;2022-08-16T06:50:51;24.88;;;22.83;;
22881;SDS011;11608;50.894;5.296;2022-08-16T06:53:18;25.02;;;23.13;;
22881;SDS011;11608;50.894;5.296;2022-08-16T06:55:44;25.42;;;23.13;;
22881;SDS011;11608;50.894;5.296;2022-08-16T06:58:10;26.13;;;24.02;;
22881;SDS011;11608;50.894;5.296;2022-08-16T07:00:36;25.70;;;23.85;;
22881;SDS011;11608;50.894;5.296;2022-08-16T07:03:03;25.95;;;23.67;;
22881;SDS011;11608;50.894;5.296;2022-08-16T07:05:29;25.90;;;23.98;;
22881;SDS011;11608;50.894;5.296;2022-08-16T07:07:56;25.20;;;23.48;;
22881;SDS011;11608;50.894;5.296;2022-08-16T07:10:22;25.17;;;23.17;;
22881;SDS011;11608;50.894;5.296;2022-08-16T07:12:48;23.33;;;21.73;;
22881;SDS011;11608;50.894;5.296;2022-08-16T07:15:18;25.65;;;23.60;;
22881;SDS011;11608;50.894;5.296;2022-08-16T07:17:44;25.55;;;23.67;;
22881;SDS011;11608;50.894;5.296;2022-08-16T07:20:13;25.65;;;23.77;;
22881;SDS011;11608;50.894;5.296;2022-08-16T07:22:40;25.63;;;23.63;;
22881;SDS011;11608;50.894;5.296;2022-08-16T07:25:07;25.52;;;23.40;;
22881;SDS011;11608;50.894;5.296;2022-08-16T07:27:33;26.10;;;23.90;;
22881;SDS011;11608;50.894;5.296;2022-08-16T07:29:59;23.02;;;21.30;;
22881;SDS011;11608;50.894;5.296;2022-08-16T07:32:26;26.00;;;24.00;;
22881;SDS011;11608;50.894;5.296;2022-08-16T07:34:52;25.20;;;23.35;;
22881;SDS011;11608;50.894;5.296;2022-08-16T07:37:18;26.00;;;24.10;;
22881;SDS011;11608;50.894;5.296;2022-08-16T07:39:49;25.63;;;23.67;;
22881;SDS011;11608;50.894;5.296;2022-08-16T07:42:15;22.63;;;21.13;;
22881;SDS011;11608;50.894;5.296;2022-08-16T07:44:41;23.73;;;21.92;;
22881;SDS011;11608;50.894;5.296;2022-08-16T07:47:07;25.65;;;23.58;;
22881;SDS011;11608;50.894;5.296;2022-08-16T07:49:33;26.00;;;24.05;;
22881;SDS011;11608;50.894;5.296;2022-08-16T07:51:59;24.02;;;22.23;;
22881;SDS011;11608;50.894;5.296;2022-08-16T07:54:25;23.45;;;21.70;;
22881;SDS011;11608;50.894;5.296;2022-08-16T07:56:52;24.83;;;22.77;;
22881;SDS011;11608;50.894;5.296;2022-08-16T07:59:18;22.77;;;21.17;;
22881;SDS011;11608;50.894;5.296;2022-08-16T08:01:44;24.08;;;22.25;;
22881;SDS011;11608;50.894;5.296;2022-08-16T08:04:10;24.48;;;22.70;;
22881;SDS011;11608;50.894;5.296;2022-08-16T08:06:38;24.45;;;22.52;;
22881;SDS011;11608;50.894;5.296;2022-08-16T08:09:04;23.85;;;22.10;;
22881;SDS011;11608;50.894;5.296;2022-08-16T08:11:31;24.05;;;22.30;;
22881;SDS011;11608;50.894;5.296;2022-08-16T08:13:57;24.85;;;22.95;;
22881;SDS011;11608;50.894;5.296;2022-08-16T08:16:24;24.23;;;22.35;;
22881;SDS011;11608;50.894;5.296;2022-08-16T08:18:50;24.35;;;22.42;;
22881;SDS011;11608;50.894;5.296;2022-08-16T08:21:19;25.70;;;23.42;;
22881;SDS011;11608;50.894;5.296;2022-08-16T08:23:45;25.05;;;23.25;;
22881;SDS011;11608;50.894;5.296;2022-08-16T08:26:12;25.00;;;22.90;;
22881;SDS011;11608;50.894;5.296;2022-08-16T08:28:38;25.48;;;23.58;;
22881;SDS011;11608;50.894;5.296;2022-08-16T08:31:04;24.98;;;22.88;;
22881;SDS011;11608;50.894;5.296;2022-08-16T08:33:30;22.90;;;21.27;;
22881;SDS011;11608;50.894;5.296;2022-08-16T08:35:58;23.30;;;21.70;;
22881;SDS011;11608;50.894;5.296;2022-08-16T08:38:25;24.23;;;22.35;;
22881;SDS011;11608;50.894;5.296;2022-08-16T08:40:51;25.38;;;23.33;;
22881;SDS011;11608;50.894;5.296;2022-08-16T08:43:18;24.58;;;22.70;;
22881;SDS011;11608;50.894;5.296;2022-08-16T08:45:44;24.65;;;22.73;;
22881;SDS011;11608;50.894;5.296;2022-08-16T08:48:10;23.88;;;22.30;;
22881;SDS011;11608;50.894;5.296;2022-08-16T08:50:36;25.58;;;23.77;;
22881;SDS011;11608;50.894;5.296;2022-08-16T08:53:02;24.40;;;22.60;;
22881;SDS011;11608;50.894;5.296;2022-08-16T08:55:28;25.17;;;23.15;;
22881;SDS011;11608;50.894;5.296;2022-08-16T08:57:55;24.20;;;22.60;;
22881;SDS011;11608;50.894;5.296;2022-08-16T09:00:23;25.52;;;23.63;;
22881;SDS011;11608;50.894;5.296;2022-08-16T09:02:50;24.73;;;22.92;;
22881;SDS011;11608;50.894;5.296;2022-08-16T09:05:16;25.55;;;23.67;;
22881;SDS011;11608;50.894;5.296;2022-08-16T09:07:43;24.55;;;22.67;;
22881;SDS011;11608;50.894;5.296;2022-08-16T09:10:10;24.23;;;22.60;;
22881;SDS011;11608;50.894;5.296;2022-08-16T09:12:37;24.13;;;22.35;;
22881;SDS011;11608;50.894;5.296;2022-08-16T09:15:03;23.92;;;22.13;;
22881;SDS011;11608;50.894;5.296;2022-08-16T09:17:30;25.42;;;23.63;;
22881;SDS011;11608;50.894;5.296;2022-08-16T09:19:56;25.60;;;23.45;;
22881;SDS011;11608;50.894;5.296;2022-08-16T09:22:22;25.88;;;23.88;;
22881;SDS011;11608;50.894;5.296;2022-08-16T09:24:49;25.13;;;23.38;;
22881;SDS011;11608;50.894;5.296;2022-08-16T09:27:15;25.38;;;23.48;;
22881;SDS011;11608;50.894;5.296;2022-08-16T09:29:41;25.92;;;23.92;;
22881;SDS011;11608;50.894;5.296;2022-08-16T09:32:07;25.35;;;23.55;;
22881;SDS011;11608;50.894;5.296;2022-08-16T09:34:33;23.67;;;22.17;;
22881;SDS011;11608;50.894;5.296;2022-08-16T09:36:59;24.65;;;22.75;;
22881;SDS011;11608;50.894;5.296;2022-08-16T09:39:25;25.13;;;23.23;;
22881;SDS011;11608;50.894;5.296;2022-08-16T09:41:52;26.25;;;24.25;;
22881;SDS011;11608;50.894;5.296;2022-08-16T09:44:23;24.75;;;23.10;;
22881;SDS011;11608;50.894;5.296;2022-08-16T09:46:50;26.08;;;23.88;;
22881;SDS011;11608;50.894;5.296;2022-08-16T09:49:16;26.02;;;24.10;;
22881;SDS011;11608;50.894;5.296;2022-08-16T09:51:42;24.80;;;22.90;;
22881;SDS011;11608;50.894;5.296;2022-08-16T09:54:09;24.70;;;22.95;;
22881;SDS011;11608;50.894;5.296;2022-08-16T09:56:36;24.00;;;22.20;;
22881;SDS011;11608;50.894;5.296;2022-08-16T09:59:04;24.55;;;22.92;;
22881;SDS011;11608;50.894;5.296;2022-08-16T10:01:31;24.92;;;22.98;;
22881;SDS011;11608;50.894;5.296;2022-08-16T10:03:57;24.58;;;22.70;;
22881;SDS011;11608;50.894;5.296;2022-08-16T10:06:23;25.00;;;23.10;;
22881;SDS011;11608;50.894;5.296;2022-08-16T10:08:50;23.83;;;21.98;;
22881;SDS011;11608;50.894;5.296;2022-08-16T10:11:16;23.02;;;21.13;;
22881;SDS011;11608;50.894;5.296;2022-08-16T10:14:02;22.42;;;20.40;;
22881;SDS011;11608;50.894;5.296;2022-08-16T10:16:28;24.02;;;22.05;;
22881;SDS011;11608;50.894;5.296;2022-08-16T10:18:54;24.60;;;22.27;;
22881;SDS011;11608;50.894;5.296;2022-08-16T10:21:20;24.42;;;22.70;;
22881;SDS011;11608;50.894;5.296;2022-08-16T10:23:47;25.40;;;23.60;;
22881;SDS011;11608;50.894;5.296;2022-08-16T10:26:16;24.20;;;22.50;;
22881;SDS011;11608;50.894;5.296;2022-08-16T10:28:43;23.65;;;21.85;;
22881;SDS011;11608;50.894;5.296;2022-08-16T10:31:09;22.83;;;21.10;;
22881;SDS011;11608;50.894;5.296;2022-08-16T10:33:37;23.77;;;21.95;;
22881;SDS011;11608;50.894;5.296;2022-08-16T10:36:03;23.67;;;21.65;;
22881;SDS011;11608;50.894;5.296;2022-08-16T10:38:31;23.65;;;21.90;;
22881;SDS011;11608;50.894;5.296;2022-08-16T10:40:58;23.95;;;22.25;;
22881;SDS011;11608;50.894;5.296;2022-08-16T10:43:24;23.40;;;21.75;;
22881;SDS011;11608;50.894;5.296;2022-08-16T10:45:50;24.10;;;22.17;;
22881;SDS011;11608;50.894;5.296;2022-08-16T10:48:16;24.08;;;22.17;;
22881;SDS011;11608;50.894;5.296;2022-08-16T10:50:42;23.52;;;21.42;;
22881;SDS011;11608;50.894;5.296;2022-08-16T10:53:09;25.35;;;23.35;;
22881;SDS011;11608;50.894;5.296;2022-08-16T10:55:36;23.70;;;22.02;;
22881;SDS011;11608;50.894;5.296;2022-08-16T10:58:03;24.42;;;22.60;;
22881;SDS011;11608;50.894;5.296;2022-08-16T11:00:30;23.30;;;21.63;;
22881;SDS011;11608;50.894;5.296;2022-08-16T11:02:57;23.85;;;22.23;;
22881;SDS011;11608;50.894;5.296;2022-08-16T11:05:23;23.15;;;21.25;;
22881;SDS011;11608;50.894;5.296;2022-08-16T11:07:49;23.10;;;21.30;;
22881;SDS011;11608;50.894;5.296;2022-08-16T11:10:16;23.27;;;21.58;;
22881;SDS011;11608;50.894;5.296;2022-08-16T11:12:43;22.67;;;21.08;;
22881;SDS011;11608;50.894;5.296;2022-08-16T11:15:09;22.67;;;21.02;;
22881;SDS011;11608;50.894;5.296;2022-08-16T11:17:35;22.85;;;21.17;;
22881;SDS011;11608;50.894;5.296;2022-08-16T11:20:03;22.88;;;21.38;;
22881;SDS011;11608;50.894;5.296;2022-08-16T11:22:30;22.95;;;21.30;;
22881;SDS011;11608;50.894;5.296;2022-08-16T11:24:57;24.67;;;22.67;;
22881;SDS011;11608;50.894;5.296;2022-08-16T11:27:23;22.90;;;21.23;;
22881;SDS011;11608;50.894;5.296;2022-08-16T11:29:51;22.73;;;20.95;;
22881;SDS011;11608;50.894;5.296;2022-08-16T11:32:18;23.70;;;21.92;;
22881;SDS011;11608;50.894;5.296;2022-08-16T11:34:44;24.55;;;22.63;;
22881;SDS011;11608;50.894;5.296;2022-08-16T11:37:10;24.33;;;22.33;;
22881;SDS011;11608;50.894;5.296;2022-08-16T11:39:36;24.73;;;22.77;;
22881;SDS011;11608;50.894;5.296;2022-08-16T11:42:02;22.98;;;21.42;;
22881;SDS011;11608;50.894;5.296;2022-08-16T11:44:28;23.00;;;21.10;;
22881;SDS011;11608;50.894;5.296;2022-08-16T11:46:54;23.05;;;21.23;;
22881;SDS011;11608;50.894;5.296;2022-08-16T11:49:20;22.80;;;21.10;;
22881;SDS011;11608;50.894;5.296;2022-08-16T11:51:46;23.35;;;21.50;;
22881;SDS011;11608;50.894;5.296;2022-08-16T11:54:14;23.98;;;22.27;;
22881;SDS011;11608;50.894;5.296;2022-08-16T11:56:40;24.30;;;22.38;;
22881;SDS011;11608;50.894;5.296;2022-08-16T11:59:06;21.83;;;20.38;;
22881;SDS011;11608;50.894;5.296;2022-08-16T12:01:32;22.70;;;20.90;;
22881;SDS011;11608;50.894;5.296;2022-08-16T12:03:58;22.45;;;20.75;;
22881;SDS011;11608;50.894;5.296;2022-08-16T12:06:24;22.70;;;20.85;;
22881;SDS011;11608;50.894;5.296;2022-08-16T12:08:50;24.83;;;22.70;;
22881;SDS011;11608;50.894;5.296;2022-08-16T12:11:17;25.65;;;23.70;;
22881;SDS011;11608;50.894;5.296;2022-08-16T12:13:43;27.02;;;24.55;;
22881;SDS011;11608;50.894;5.296;2022-08-16T12:16:10;25.02;;;23.27;;
22881;SDS011;11608;50.894;5.296;2022-08-16T12:18:36;26.65;;;24.50;;
22881;SDS011;11608;50.894;5.296;2022-08-16T12:21:04;23.95;;;22.33;;
22881;SDS011;11608;50.894;5.296;2022-08-16T12:23:30;23.23;;;21.52;;
22881;SDS011;11608;50.894;5.296;2022-08-16T12:25:56;24.65;;;22.58;;
22881;SDS011;11608;50.894;5.296;2022-08-16T12:28:22;25.90;;;23.90;;
22881;SDS011;11608;50.894;5.296;2022-08-16T12:30:48;23.83;;;21.85;;
22881;SDS011;11608;50.894;5.296;2022-08-16T12:33:16;23.75;;;22.10;;
22881;SDS011;11608;50.894;5.296;2022-08-16T12:35:44;24.90;;;22.98;;
22881;SDS011;11608;50.894;5.296;2022-08-16T12:38:10;24.27;;;22.45;;
22881;SDS011;11608;50.894;5.296;2022-08-16T12:40:38;23.90;;;22.13;;
22881;SDS011;11608;50.894;5.296;2022-08-16T12:43:06;23.92;;;21.90;;
22881;SDS011;11608;50.894;5.296;2022-08-16T12:45:33;24.10;;;22.38;;
22881;SDS011;11608;50.894;5.296;2022-08-16T12:48:00;23.60;;;22.00;;
22881;SDS011;11608;50.894;5.296;2022-08-16T12:50:45;23.25;;;21.60;;
22881;SDS011;11608;50.894;5.296;2022-08-16T12:53:12;24.20;;;22.40;;
22881;SDS011;11608;50.894;5.296;2022-08-16T12:55:38;22.60;;;20.92;;
22881;SDS011;11608;50.894;5.296;2022-08-16T12:58:04;24.25;;;22.55;;
22881;SDS011;11608;50.894;5.296;2022-08-16T13:00:30;23.10;;;20.98;;
22881;SDS011;11608;50.894;5.296;2022-08-16T13:02:57;23.45;;;21.77;;
22881;SDS011;11608;50.894;5.296;2022-08-16T13:05:24;23.90;;;22.20;;
22881;SDS011;11608;50.894;5.296;2022-08-16T13:07:50;23.70;;;22.05;;
22881;SDS011;11608;50.894;5.296;2022-08-16T13:10:16;23.40;;;21.70;;
22881;SDS011;11608;50.894;5.296;2022-08-16T13:12:44;23.00;;;21.30;;
22881;SDS011;11608;50.894;5.296;2022-08-16T13:15:11;23.27;;;21.48;;
22881;SDS011;11608;50.894;5.296;2022-08-16T13:17:38;22.70;;;21.00;;
22881;SDS011;11608;50.894;5.296;2022-08-16T13:20:06;23.20;;;21.38;;
22881;SDS011;11608;50.894;5.296;2022-08-16T13:22:33;23.50;;;21.73;;
22881;SDS011;11608;50.894;5.296;2022-08-16T13:24:59;23.08;;;21.38;;
22881;SDS011;11608;50.894;5.296;2022-08-16T13:27:25;22.45;;;21.00;;
22881;SDS011;11608;50.894;5.296;2022-08-16T13:29:51;22.83;;;21.23;;
22881;SDS011;11608;50.894;5.296;2022-08-16T13:32:17;23.05;;;21.05;;
22881;SDS011;11608;50.894;5.296;2022-08-16T13:34:43;22.58;;;20.70;;
22881;SDS011;11608;50.894;5.296;2022-08-16T13:37:09;22.65;;;20.77;;
22881;SDS011;11608;50.894;5.296;2022-08-16T13:39:40;23.20;;;21.45;;
22881;SDS011;11608;50.894;5.296;2022-08-16T13:42:10;22.98;;;20.95;;
22881;SDS011;11608;50.894;5.296;2022-08-16T13:44:36;22.40;;;20.83;;
22881;SDS011;11608;50.894;5.296;2022-08-16T13:47:03;22.90;;;21.20;;
22881;SDS011;11608;50.894;5.296;2022-08-16T13:49:30;22.45;;;20.85;;
22881;SDS011;11608;50.894;5.296;2022-08-16T13:51:56;23.52;;;21.63;;
22881;SDS011;11608;50.894;5.296;2022-08-16T13:54:22;22.67;;;21.17;;
22881;SDS011;11608;50.894;5.296;2022-08-16T13:56:48;22.58;;;20.95;;
22881;SDS011;11608;50.894;5.296;2022-08-16T13:59:14;22.38;;;20.85;;
22881;SDS011;11608;50.894;5.296;2022-08-16T14:01:41;22.77;;;21.25;;
22881;SDS011;11608;50.894;5.296;2022-08-16T14:04:08;22.52;;;21.05;;
22881;SDS011;11608;50.894;5.296;2022-08-16T14:06:34;23.02;;;21.33;;
22881;SDS011;11608;50.894;5.296;2022-08-16T14:09:00;24.00;;;22.30;;
22881;SDS011;11608;50.894;5.296;2022-08-16T14:11:26;23.58;;;22.05;;
22881;SDS011;11608;50.894;5.296;2022-08-16T14:13:52;23.52;;;21.65;;
22881;SDS011;11608;50.894;5.296;2022-08-16T14:16:18;23.25;;;21.40;;
22881;SDS011;11608;50.894;5.296;2022-08-16T14:18:44;22.70;;;21.10;;
22881;SDS011;11608;50.894;5.296;2022-08-16T14:21:10;22.08;;;20.48;;
22881;SDS011;11608;50.894;5.296;2022-08-16T14:23:36;23.00;;;21.05;;
22881;SDS011;11608;50.894;5.296;2022-08-16T14:26:02;22.85;;;21.25;;